Time;durP1;ratioP1;P1;durP2;ratioP2;P2;SDS_P1;SDS_P2;PMS_P1;PMS_P2;Temp;Humidity;BMP_temperature;BMP_pressure;BME280_temperature;BME280_humidity;BME280_pressure;Samples;Min_cycle;Max_cycle;Signal;HPM_P1;HPM_P2
2022/04/02 00:01:10;;;;;;;9.07;3.88;;;2.60;68.00;;;;;;5045442;28;25132;-61
2022/04/02 00:03:35;;;;;;;8.68;3.05;;;2.60;68.10;;;;;;5045466;28;25115;-60
2022/04/02 00:06:01;;;;;;;8.93;3.83;;;2.60;68.20;;;;;;5044510;28;25071;-63
2022/04/02 00:08:26;;;;;;;9.02;3.67;;;2.60;68.20;;;;;;5046618;28;25135;-60
2022/04/02 00:10:52;;;;;;;10.75;4.00;;;2.60;67.80;;;;;;5044391;28;25103;-60
2022/04/02 00:13:18;;;;;;;7.82;3.80;;;2.60;67.40;;;;;;5044307;28;25216;-61
2022/04/02 00:15:43;;;;;;;10.43;3.58;;;2.60;67.20;;;;;;5045892;28;25087;-61
2022/04/02 00:18:10;;;;;;;6.70;3.72;;;2.60;66.80;;;;;;5046628;28;25140;-60
2022/04/02 00:20:35;;;;;;;11.38;3.85;;;2.60;66.90;;;;;;5046158;28;25072;-62
2022/04/02 00:25:45;;;;;;;9.10;3.65;;;2.60;67.90;;;;;;5053551;28;25067;-61
2022/04/02 00:28:10;;;;;;;7.22;3.58;;;2.60;69.00;;;;;;5049707;28;25072;-61
2022/04/02 00:30:36;;;;;;;7.22;3.63;;;2.60;70.20;;;;;;5026203;28;25063;-62
2022/04/02 00:33:02;;;;;;;13.55;4.30;;;2.60;70.70;;;;;;5044347;28;25137;-62
2022/04/02 00:35:28;;;;;;;9.90;3.42;;;2.50;71.50;;;;;;5044263;28;25065;-63
2022/04/02 00:37:53;;;;;;;9.73;3.55;;;2.50;72.40;;;;;;5039849;28;25141;-60
2022/04/02 00:40:19;;;;;;;9.85;3.50;;;2.50;72.20;;;;;;5044084;28;25069;-61
2022/04/02 00:42:45;;;;;;;9.90;3.75;;;2.40;72.00;;;;;;5044112;28;25067;-64
2022/04/02 00:45:11;;;;;;;8.50;3.35;;;2.40;71.80;;;;;;5045102;28;25067;-62
2022/04/02 00:47:37;;;;;;;8.25;3.53;;;2.40;71.00;;;;;;5045455;28;25055;-64
2022/04/02 00:50:03;;;;;;;9.40;2.88;;;2.40;70.50;;;;;;5028561;28;25064;-61
2022/04/02 00:52:30;;;;;;;8.63;3.60;;;2.40;70.40;;;;;;5042487;28;25074;-62
2022/04/02 00:54:55;;;;;;;9.82;3.00;;;2.50;71.30;;;;;;5044162;28;25100;-61
2022/04/02 00:57:22;;;;;;;9.40;3.47;;;2.50;72.10;;;;;;5042941;28;25139;-61
2022/04/02 00:59:49;;;;;;;13.70;3.42;;;2.40;72.10;;;;;;5044441;28;25097;-63
2022/04/02 01:02:15;;;;;;;15.02;3.50;;;2.40;72.70;;;;;;5046499;28;25061;-63
2022/04/02 01:04:41;;;;;;;11.85;3.33;;;2.50;72.80;;;;;;5043060;28;25131;-63
2022/04/02 01:07:06;;;;;;;7.28;3.10;;;2.40;72.80;;;;;;5042206;28;25077;-61
2022/04/02 01:09:32;;;;;;;11.80;3.33;;;2.40;72.90;;;;;;5044239;28;25146;-61
2022/04/02 01:11:57;;;;;;;8.43;3.13;;;2.40;72.80;;;;;;5023999;28;25111;-61
2022/04/02 01:14:23;;;;;;;7.95;3.28;;;2.40;72.60;;;;;;5043804;28;25065;-61
2022/04/02 01:16:50;;;;;;;9.65;2.88;;;2.30;72.40;;;;;;5021964;28;25062;-61
2022/04/02 01:19:15;;;;;;;7.45;3.25;;;2.30;71.80;;;;;;5043230;28;25069;-60
2022/04/02 01:21:45;;;;;;;5.93;3.28;;;2.30;71.20;;;;;;5024417;28;25110;-61
2022/04/02 01:24:11;;;;;;;8.55;3.42;;;2.30;71.60;;;;;;5021345;28;25094;-62
2022/04/02 01:26:37;;;;;;;6.30;3.30;;;2.20;71.90;;;;;;5041208;28;25057;-60
2022/04/02 01:29:03;;;;;;;6.78;3.22;;;2.20;71.80;;;;;;5043866;28;25119;-61
2022/04/02 01:31:29;;;;;;;8.52;3.83;;;2.20;71.80;;;;;;5043897;28;25058;-62
2022/04/02 01:33:55;;;;;;;9.43;3.53;;;2.10;71.20;;;;;;5041733;28;25082;-62
2022/04/02 01:36:21;;;;;;;8.57;2.95;;;2.10;71.10;;;;;;5041629;28;25138;-60
2022/04/02 01:38:48;;;;;;;7.28;3.40;;;2.10;71.30;;;;;;5043956;28;25152;-60
2022/04/02 01:41:14;;;;;;;7.05;2.70;;;2.10;71.30;;;;;;5042118;28;25063;-62
2022/04/02 01:43:40;;;;;;;7.97;2.90;;;2.10;70.30;;;;;;5042478;28;25086;-61
2022/04/02 01:46:07;;;;;;;7.22;3.50;;;2.10;69.40;;;;;;5042650;28;25143;-61
2022/04/02 01:48:33;;;;;;;9.43;2.65;;;2.10;68.70;;;;;;5044133;28;25054;-62
2022/04/02 01:50:59;;;;;;;4.95;2.72;;;2.10;67.60;;;;;;5042629;28;25089;-61
2022/04/02 01:53:26;;;;;;;9.95;2.72;;;2.10;66.20;;;;;;5044263;28;25106;-61
2022/04/02 01:55:53;;;;;;;6.28;3.05;;;2.10;65.70;;;;;;5042338;28;25054;-61
2022/04/02 01:58:19;;;;;;;4.85;2.60;;;2.10;64.60;;;;;;5044011;28;25062;-61
2022/04/02 02:00:46;;;;;;;8.65;3.20;;;2.10;64.00;;;;;;5041770;28;25072;-61
2022/04/02 02:03:12;;;;;;;5.47;2.47;;;2.20;63.40;;;;;;5041339;28;25071;-61
2022/04/02 02:05:39;;;;;;;8.35;3.08;;;2.20;62.40;;;;;;5041811;28;25059;-61
2022/04/02 02:08:05;;;;;;;5.82;3.10;;;2.20;61.40;;;;;;5020837;28;25058;-60
2022/04/02 02:10:32;;;;;;;4.53;2.33;;;2.10;60.50;;;;;;5043996;28;25091;-61
2022/04/02 02:12:58;;;;;;;4.95;2.60;;;2.20;59.90;;;;;;5025283;28;25084;-60
2022/04/02 02:15:25;;;;;;;5.32;2.58;;;2.10;59.10;;;;;;5045093;28;25067;-60
2022/04/02 02:17:51;;;;;;;5.53;2.65;;;2.20;58.50;;;;;;5042871;28;25054;-60
2022/04/02 02:20:17;;;;;;;7.03;2.63;;;2.20;57.60;;;;;;5041529;28;25110;-60
2022/04/02 02:22:44;;;;;;;6.22;2.45;;;2.10;57.00;;;;;;5046462;28;25076;-60
2022/04/02 02:25:12;;;;;;;7.45;2.80;;;2.10;56.70;;;;;;5050122;28;25100;-62
2022/04/02 02:27:39;;;;;;;7.22;2.60;;;2.10;56.80;;;;;;5044357;28;25151;-61
2022/04/02 02:30:06;;;;;;;3.90;2.65;;;2.10;56.30;;;;;;5043245;28;25132;-61
2022/04/02 02:32:36;;;;;;;6.57;2.90;;;2.10;56.20;;;;;;5043125;28;25079;-60
2022/04/02 02:37:50;;;;;;;4.60;3.35;;;2.10;54.50;;;;;;5042903;28;25141;-61
2022/04/02 02:40:16;;;;;;;9.82;2.80;;;2.10;54.20;;;;;;5043050;28;25063;-60
2022/04/02 02:42:41;;;;;;;3.38;2.50;;;2.10;53.30;;;;;;5043466;28;25065;-59
2022/04/02 02:45:07;;;;;;;7.45;2.70;;;2.10;52.40;;;;;;5041779;28;25060;-60
2022/04/02 02:47:33;;;;;;;4.93;2.53;;;2.20;51.30;;;;;;5044545;28;25076;-61
2022/04/02 02:50:00;;;;;;;5.40;2.58;;;2.10;50.80;;;;;;5043780;28;25069;-61
2022/04/02 02:52:26;;;;;;;8.95;2.40;;;2.20;50.60;;;;;;5042556;28;25140;-60
2022/04/02 02:54:52;;;;;;;3.92;2.45;;;2.10;50.10;;;;;;5042458;28;25053;-60
2022/04/02 02:57:17;;;;;;;6.55;2.22;;;2.10;50.20;;;;;;5042834;28;25121;-61
2022/04/02 02:59:43;;;;;;;6.72;3.85;;;2.10;50.20;;;;;;5040816;28;25079;-60
2022/04/02 03:02:11;;;;;;;4.55;2.40;;;2.10;50.20;;;;;;5041274;28;25114;-61
2022/04/02 03:04:37;;;;;;;4.05;2.25;;;2.10;50.20;;;;;;5043002;28;25085;-60
2022/04/02 03:07:03;;;;;;;4.30;2.42;;;2.00;49.40;;;;;;5042692;28;25085;-61
2022/04/02 03:09:28;;;;;;;4.28;2.80;;;2.00;49.70;;;;;;5036746;28;25079;-60
2022/04/02 03:11:55;;;;;;;6.03;2.47;;;2.00;49.70;;;;;;5042061;28;25067;-60
2022/04/02 03:14:21;;;;;;;5.32;3.22;;;2.00;50.40;;;;;;5040907;28;25130;-60
2022/04/02 03:16:47;;;;;;;6.43;2.72;;;1.90;50.50;;;;;;5042835;28;25074;-61
2022/04/02 03:19:12;;;;;;;5.10;2.58;;;1.90;51.10;;;;;;5026966;28;25112;-61
2022/04/02 03:21:38;;;;;;;7.95;3.28;;;1.90;51.70;;;;;;5027391;28;25082;-61
2022/04/02 03:24:04;;;;;;;4.57;2.50;;;1.90;52.30;;;;;;5047066;28;25112;-62
2022/04/02 03:26:29;;;;;;;8.20;2.75;;;1.80;52.20;;;;;;5045151;28;25064;-61
2022/04/02 03:28:55;;;;;;;4.55;2.28;;;1.80;52.10;;;;;;5046578;28;25140;-60
2022/04/02 03:31:22;;;;;;;8.50;2.60;;;1.80;52.10;;;;;;5045835;28;25155;-62
2022/04/02 03:33:48;;;;;;;4.35;2.55;;;1.80;51.90;;;;;;5044428;28;25054;-59
2022/04/02 03:36:13;;;;;;;7.05;2.67;;;1.80;51.30;;;;;;5044885;28;25055;-60
2022/04/02 03:38:39;;;;;;;4.45;2.40;;;1.90;51.30;;;;;;5027553;28;25066;-61
2022/04/02 03:41:05;;;;;;;3.45;2.53;;;1.80;51.00;;;;;;5045555;28;25096;-61
2022/04/02 03:43:31;;;;;;;5.95;2.33;;;1.90;50.60;;;;;;5045623;28;25154;-61
2022/04/02 03:47:08;;;;;;;5.20;2.63;;;1.80;50.90;;;;;;5045647;28;25069;-61
2022/04/02 03:48:43;;;;;;;6.82;3.03;;;1.90;49.80;;;;;;5041718;28;25122;-61
2022/04/02 03:51:09;;;;;;;3.35;2.13;;;1.90;49.70;;;;;;5044696;28;25058;-60
2022/04/02 03:53:34;;;;;;;8.27;2.45;;;1.90;49.50;;;;;;5042463;28;25120;-59
2022/04/02 03:56:00;;;;;;;4.55;2.17;;;1.90;48.50;;;;;;5046400;28;25086;-59
2022/04/02 03:58:27;;;;;;;6.18;2.17;;;2.00;48.10;;;;;;5046558;28;25121;-60
2022/04/02 04:00:53;;;;;;;4.85;2.55;;;2.00;48.00;;;;;;5044603;28;25070;-60
2022/04/02 04:03:19;;;;;;;7.35;2.67;;;2.00;47.70;;;;;;5027238;28;25099;-60
2022/04/02 04:05:45;;;;;;;7.65;2.92;;;2.00;48.00;;;;;;5044370;28;25097;-60
2022/04/02 04:08:11;;;;;;;3.50;2.47;;;1.90;48.10;;;;;;5043035;28;25103;-60
2022/04/02 04:10:36;;;;;;;4.55;2.22;;;1.90;48.10;;;;;;5025573;28;25104;-61
2022/04/02 04:13:02;;;;;;;5.88;2.40;;;1.90;48.30;;;;;;5044186;28;25079;-62
2022/04/02 04:15:28;;;;;;;8.25;2.65;;;1.90;48.30;;;;;;5045266;28;25061;-61
2022/04/02 04:17:56;;;;;;;7.57;2.88;;;1.90;48.30;;;;;;5044296;28;25059;-61
2022/04/02 04:20:22;;;;;;;4.32;2.70;;;1.80;48.50;;;;;;5057658;22;25086;-70
2022/04/02 04:22:47;;;;;;;6.80;2.35;;;1.80;48.70;;;;;;5064113;28;25152;-70
2022/04/02 04:25:19;;;;;;;6.95;2.50;;;1.80;49.40;;;;;;5062437;28;25083;-68
2022/04/02 04:27:44;;;;;;;3.83;2.17;;;1.70;50.00;;;;;;5061651;28;25059;-70
2022/04/02 04:30:16;;;;;;;8.80;2.88;;;1.70;50.90;;;;;;5064062;28;25135;-67
2022/04/02 04:32:41;;;;;;;5.83;2.50;;;1.60;52.30;;;;;;5064470;28;25061;-66
2022/04/02 04:35:10;;;;;;;6.20;2.72;;;1.60;53.40;;;;;;5062758;28;25100;-69
2022/04/02 04:37:37;;;;;;;6.18;2.95;;;1.50;55.70;;;;;;5066306;28;25047;-68
2022/04/02 04:40:05;;;;;;;8.23;3.10;;;1.50;58.30;;;;;;5062558;28;25106;-67
2022/04/02 04:42:31;;;;;;;7.60;2.95;;;1.50;59.30;;;;;;5045977;28;25074;-70
2022/04/02 04:44:57;;;;;;;7.60;3.47;;;1.50;61.00;;;;;;5064031;28;25051;-68
2022/04/02 04:47:22;;;;;;;6.07;3.13;;;1.50;61.40;;;;;;5064631;28;25066;-69
2022/04/02 04:49:48;;;;;;;6.65;3.42;;;1.50;61.90;;;;;;5070176;28;25201;-68
2022/04/02 04:52:13;;;;;;;5.65;3.17;;;1.50;63.30;;;;;;5045487;28;25069;-71
2022/04/02 04:54:39;;;;;;;6.00;3.70;;;1.50;64.00;;;;;;5064781;28;25137;-67
2022/04/02 04:57:05;;;;;;;6.00;3.53;;;1.50;64.20;;;;;;5061950;28;25161;-67
2022/04/02 04:59:30;;;;;;;5.75;3.10;;;1.50;64.60;;;;;;5063969;28;25069;-70
2022/04/02 05:02:18;;;;;;;10.38;3.50;;;1.50;64.50;;;;;;5064372;28;25074;-68
2022/04/02 05:04:43;;;;;;;6.63;3.42;;;1.50;64.60;;;;;;5061254;28;25147;-71
2022/04/02 05:07:09;;;;;;;9.02;3.63;;;1.50;64.90;;;;;;5066353;28;25097;-68
2022/04/02 05:09:47;;;;;;;8.05;3.45;;;1.50;65.20;;;;;;5065955;28;25066;-70
2022/04/02 05:12:15;;;;;;;11.93;3.75;;;1.50;64.70;;;;;;5063444;28;25509;-68
2022/04/02 05:14:41;;;;;;;8.98;3.40;;;1.50;64.50;;;;;;5062203;28;25115;-69
2022/04/02 05:17:06;;;;;;;6.82;3.85;;;1.50;64.20;;;;;;5062303;28;25154;-69
2022/04/02 05:19:32;;;;;;;9.27;3.85;;;1.50;63.80;;;;;;5061551;28;25054;-70
2022/04/02 05:21:58;;;;;;;6.03;3.17;;;1.50;62.70;;;;;;5024888;28;1054195;-70
2022/04/02 05:24:24;;;;;;;10.65;3.65;;;1.50;62.30;;;;;;5061953;28;25133;-69
2022/04/02 05:26:50;;;;;;;4.60;3.17;;;1.50;62.10;;;;;;5041974;28;25148;-68
2022/04/02 05:29:16;;;;;;;7.25;3.10;;;1.50;62.10;;;;;;5063764;28;25111;-70
2022/04/02 05:31:42;;;;;;;4.70;3.05;;;1.50;61.80;;;;;;5062458;28;25099;-68
2022/04/02 05:34:09;;;;;;;8.35;3.78;;;1.50;62.00;;;;;;5042716;28;25074;-67
2022/04/02 05:36:35;;;;;;;5.70;3.05;;;1.40;62.30;;;;;;5063111;28;25144;-68
2022/04/02 05:39:01;;;;;;;5.22;3.40;;;1.50;62.80;;;;;;5061730;28;25072;-68
2022/04/02 05:41:48;;;;;;;6.40;3.50;;;1.50;62.80;;;;;;5067233;28;25116;-66
2022/04/02 05:44:14;;;;;;;8.38;3.97;;;1.50;63.00;;;;;;5090420;22;25071;-74
2022/04/02 05:46:39;;;;;;;11.80;3.75;;;1.50;63.40;;;;;;5030891;28;25057;-74
2022/04/02 05:49:05;;;;;;;12.20;3.58;;;1.50;63.80;;;;;;5032352;28;25139;-73
2022/04/02 05:51:31;;;;;;;9.25;3.83;;;1.60;64.50;;;;;;5051515;28;25071;-74
2022/04/02 05:53:57;;;;;;;9.02;4.15;;;1.60;65.40;;;;;;5046329;28;25075;-72
2022/04/02 05:56:23;;;;;;;7.45;3.60;;;1.60;65.50;;;;;;5039683;28;25122;-77
2022/04/02 05:58:51;;;;;;;8.30;3.45;;;1.60;65.90;;;;;;5043090;28;25076;-75
2022/04/02 06:01:17;;;;;;;6.50;3.58;;;1.60;65.90;;;;;;5041012;28;25048;-77
2022/04/02 06:03:43;;;;;;;10.68;4.30;;;1.70;65.70;;;;;;5043026;28;25052;-76
2022/04/02 06:06:09;;;;;;;9.20;4.00;;;1.70;65.90;;;;;;5046100;28;25047;-76
2022/04/02 06:08:34;;;;;;;5.85;3.97;;;1.70;65.20;;;;;;5030939;28;25062;-76
2022/04/02 06:11:06;;;;;;;8.57;3.70;;;1.80;65.30;;;;;;5044583;28;25089;-75
2022/04/02 06:13:31;;;;;;;11.65;4.35;;;1.80;64.80;;;;;;5021701;28;25084;-75
2022/04/02 06:15:57;;;;;;;7.38;3.78;;;1.80;64.20;;;;;;5043905;28;25146;-74
2022/04/02 06:18:23;;;;;;;7.07;3.75;;;1.80;64.80;;;;;;5048331;28;25076;-75
2022/04/02 06:20:49;;;;;;;7.13;3.75;;;1.80;64.30;;;;;;5055944;28;25053;-76
2022/04/02 06:23:15;;;;;;;6.30;3.47;;;1.90;64.50;;;;;;5052578;28;25063;-76
2022/04/02 06:25:41;;;;;;;5.80;3.50;;;1.90;64.60;;;;;;5041169;28;25063;-73
2022/04/02 06:28:06;;;;;;;9.00;3.85;;;1.90;64.10;;;;;;5045232;28;25096;-76
2022/04/02 06:30:32;;;;;;;7.45;4.22;;;1.90;64.80;;;;;;5021187;28;25071;-76
2022/04/02 06:33:00;;;;;;;8.98;3.55;;;2.00;64.30;;;;;;5043872;28;25076;-74
2022/04/02 06:35:29;;;;;;;7.38;4.00;;;2.00;64.40;;;;;;5028057;28;25069;-74
2022/04/02 06:37:55;;;;;;;5.32;3.17;;;2.00;64.40;;;;;;5045043;28;25094;-75
2022/04/02 06:40:23;;;;;;;9.27;4.03;;;2.10;63.90;;;;;;5035433;28;25075;-75
2022/04/02 06:42:48;;;;;;;7.20;3.83;;;2.10;63.00;;;;;;5045705;28;25093;-73
2022/04/02 06:45:15;;;;;;;8.38;3.70;;;2.20;62.90;;;;;;5042480;28;25156;-75
2022/04/02 06:47:41;;;;;;;15.43;4.93;;;2.30;61.50;;;;;;5025459;28;25104;-76
2022/04/02 06:50:13;;;;;;;6.78;3.65;;;2.30;59.30;;;;;;5046174;28;25104;-74
2022/04/02 06:52:39;;;;;;;6.55;3.42;;;2.40;59.40;;;;;;5018684;28;25057;-76
2022/04/02 06:55:08;;;;;;;5.88;3.38;;;2.40;59.20;;;;;;5051768;28;25131;-75
2022/04/02 06:57:52;;;;;;;8.07;3.35;;;2.50;58.80;;;;;;5046815;28;25057;-74
2022/04/02 07:00:18;;;;;;;12.48;3.60;;;2.60;57.70;;;;;;5037656;28;25082;-76
2022/04/02 07:02:44;;;;;;;7.43;3.75;;;2.60;56.40;;;;;;5052632;28;25130;-75
2022/04/02 07:05:10;;;;;;;7.30;3.60;;;2.70;54.80;;;;;;5051731;28;25077;-75
2022/04/02 07:07:36;;;;;;;9.00;3.30;;;2.80;54.30;;;;;;5059573;28;25065;-75
2022/04/02 07:10:04;;;;;;;5.07;2.90;;;2.80;53.60;;;;;;5063380;28;25060;-77
2022/04/02 07:12:29;;;;;;;12.27;3.22;;;2.90;52.90;;;;;;5045055;28;25098;-76
2022/04/02 07:14:55;;;;;;;6.60;3.30;;;3.00;52.20;;;;;;5051308;28;25086;-75
2022/04/02 07:17:21;;;;;;;4.50;2.80;;;3.00;51.90;;;;;;5046721;28;25133;-74
2022/04/02 07:19:47;;;;;;;6.05;3.22;;;3.10;50.70;;;;;;5039983;28;25080;-76
2022/04/02 07:22:14;;;;;;;8.23;2.85;;;3.10;49.90;;;;;;5048323;28;25066;-76
2022/04/02 07:24:41;;;;;;;4.18;2.97;;;3.10;48.90;;;;;;5038394;28;25126;-75
2022/04/02 07:27:07;;;;;;;7.10;3.65;;;3.20;49.00;;;;;;5042198;28;25105;-76
2022/04/02 07:29:33;;;;;;;4.78;2.55;;;3.20;48.00;;;;;;5027270;28;25060;-75
2022/04/02 07:31:59;;;;;;;6.70;3.13;;;3.30;48.50;;;;;;5042227;28;25075;-74
2022/04/02 07:34:25;;;;;;;4.57;3.08;;;3.30;47.50;;;;;;5047601;28;25064;-79
2022/04/02 07:37:05;;;;;;;6.88;3.25;;;3.30;47.00;;;;;;5048170;28;25100;-75
2022/04/02 07:39:39;;;;;;;8.88;3.22;;;3.40;46.50;;;;;;5046272;28;25063;-75
2022/04/02 07:42:21;;;;;;;11.70;3.33;;;3.40;47.40;;;;;;5038163;28;25056;-76
2022/04/02 07:45:03;;;;;;;8.52;3.33;;;3.60;48.00;;;;;;5053841;28;25134;-77
2022/04/02 07:47:32;;;;;;;3.83;2.63;;;3.60;46.70;;;;;;5050239;28;25103;-73
2022/04/02 07:50:06;;;;;;;8.63;3.15;;;3.60;45.80;;;;;;5044553;28;25033;-77
2022/04/02 07:52:32;;;;;;;5.95;3.83;;;3.70;45.90;;;;;;5048364;28;25056;-76
2022/04/02 07:55:00;;;;;;;7.03;2.30;;;3.70;45.10;;;;;;5031545;28;25114;-76
2022/04/02 07:57:42;;;;;;;4.07;2.78;;;3.70;45.20;;;;;;5047288;28;25073;-76
2022/04/02 08:00:10;;;;;;;5.30;2.78;;;3.70;44.00;;;;;;5039429;28;25096;-76
2022/04/02 08:02:39;;;;;;;6.15;2.60;;;3.80;44.80;;;;;;5049491;28;25066;-77
2022/04/02 08:05:10;;;;;;;7.72;3.05;;;3.90;44.20;;;;;;5042548;28;25065;-78
2022/04/02 08:07:39;;;;;;;6.90;2.63;;;4.00;43.90;;;;;;5050242;28;25069;-78
2022/04/02 08:10:11;;;;;;;5.65;2.65;;;4.10;45.10;;;;;;5050161;28;25065;-76
2022/04/02 08:12:38;;;;;;;8.30;2.70;;;4.30;43.90;;;;;;5039222;28;25050;-76
2022/04/02 08:15:07;;;;;;;6.60;2.92;;;4.30;42.70;;;;;;5047650;28;25098;-78
2022/04/02 08:17:33;;;;;;;5.95;3.00;;;4.40;41.70;;;;;;5046132;28;25079;-77
2022/04/02 08:20:00;;;;;;;5.30;2.35;;;4.30;41.40;;;;;;5046811;28;25054;-76
2022/04/02 08:22:27;;;;;;;6.65;3.17;;;4.40;40.40;;;;;;5053515;28;25051;-77
2022/04/02 08:24:53;;;;;;;5.20;2.92;;;4.40;39.80;;;;;;5035029;28;25063;-78
2022/04/02 08:27:53;;;;;;;6.32;2.85;;;4.50;40.70;;;;;;5035002;28;25078;-75
2022/04/02 08:30:27;;;;;;;4.15;2.35;;;4.70;40.70;;;;;;5045520;28;25075;-76
2022/04/02 08:33:17;;;;;;;7.45;2.17;;;4.90;38.00;;;;;;5056920;28;25105;-77
2022/04/02 08:36:05;;;;;;;8.45;2.63;;;5.10;37.50;;;;;;5062218;28;25084;-78
2022/04/02 08:38:49;;;;;;;4.30;2.90;;;5.10;32.40;;;;;;5062782;28;25063;-78
2022/04/02 08:41:44;;;;;;;5.82;2.92;;;5.30;31.90;;;;;;5064672;28;25056;-77
2022/04/02 08:44:28;;;;;;;6.00;2.58;;;5.30;30.50;;;;;;5056328;28;25056;-78
2022/04/02 08:47:21;;;;;;;4.60;2.53;;;5.50;31.50;;;;;;5059879;28;25046;-79
2022/04/02 08:50:12;;;;;;;5.35;2.67;;;5.70;29.80;;;;;;5056051;28;25065;-76
2022/04/02 08:52:40;;;;;;;5.70;2.38;;;5.30;29.70;;;;;;5059568;28;25066;-79
2022/04/02 08:55:15;;;;;;;4.38;2.33;;;5.20;31.00;;;;;;5041228;28;25045;-78
2022/04/02 08:57:52;;;;;;;8.05;2.72;;;5.10;29.50;;;;;;5066025;28;25111;-77
2022/04/02 09:00:26;;;;;;;4.55;2.67;;;5.20;27.70;;;;;;5064511;28;25071;-77
2022/04/02 09:03:27;;;;;;;3.17;2.38;;;5.20;28.90;;;;;;5062453;28;25061;-79
2022/04/02 09:06:07;;;;;;;5.72;2.38;;;5.00;28.30;;;;;;4992620;28;25076;-79
2022/04/02 09:08:48;;;;;;;8.85;2.92;;;5.20;30.00;;;;;;5068521;28;25055;-79
2022/04/02 09:11:22;;;;;;;5.90;2.38;;;5.40;31.20;;;;;;5068692;28;25119;-78
2022/04/02 09:14:07;;;;;;;3.10;2.15;;;5.60;27.90;;;;;;5064184;28;25068;-80
2022/04/02 09:16:53;;;;;;;4.10;1.95;;;5.90;25.80;;;;;;5060815;28;25066;-77
2022/04/02 09:19:56;;;;;;;2.75;2.13;;;5.90;22.30;;;;;;5057907;28;25049;-81
2022/04/02 09:22:38;;;;;;;3.90;2.10;;;5.90;20.30;;;;;;4997629;28;25066;-78
2022/04/02 09:25:39;;;;;;;4.07;2.30;;;5.80;22.60;;;;;;5044023;28;25147;-77
2022/04/02 09:28:05;;;;;;;5.60;2.22;;;6.00;21.40;;;;;;5046138;28;25062;-77
2022/04/02 09:30:48;;;;;;;5.88;2.17;;;6.10;18.70;;;;;;5048303;28;25136;-75
2022/04/02 09:33:25;;;;;;;4.68;2.35;;;6.00;18.30;;;;;;5052425;28;25064;-77
2022/04/02 09:36:10;;;;;;;4.65;2.22;;;5.90;20.00;;;;;;5054846;28;25071;-77
2022/04/02 09:39:10;;;;;;;3.78;2.10;;;5.90;16.00;;;;;;5021120;28;25063;-73
2022/04/02 09:42:02;;;;;;;4.20;2.17;;;6.00;18.10;;;;;;5049900;28;25071;-75
2022/04/02 09:44:42;;;;;;;3.90;1.90;;;6.00;15.80;;;;;;5055986;28;25096;-74
2022/04/02 09:47:36;;;;;;;3.38;1.73;;;5.90;16.20;;;;;;5050871;28;25161;-75
2022/04/02 09:50:12;;;;;;;3.00;2.00;;;6.40;14.90;;;;;;5052603;28;25133;-74
2022/04/02 09:52:46;;;;;;;3.13;1.80;;;6.50;14.70;;;;;;5043546;28;25154;-76
2022/04/02 09:55:20;;;;;;;4.43;1.70;;;6.60;10.60;;;;;;5051208;28;25062;-74
2022/04/02 09:57:45;;;;;;;3.38;1.70;;;6.10;11.30;;;;;;5039823;28;25069;-76
2022/04/02 10:00:16;;;;;;;3.67;1.77;;;5.90;9.70;;;;;;5043247;28;25124;-76
2022/04/02 10:03:04;;;;;;;2.65;1.92;;;5.90;9.90;;;;;;5049060;28;25138;-76
2022/04/02 10:05:39;;;;;;;2.97;1.92;;;6.00;10.10;;;;;;5040027;28;25100;-73
2022/04/02 10:08:11;;;;;;;4.32;2.30;;;6.00;11.40;;;;;;5051789;28;25095;-76
2022/04/02 10:10:38;;;;;;;3.47;1.70;;;5.90;9.50;;;;;;5052021;28;25042;-74
2022/04/02 10:13:06;;;;;;;3.45;1.90;;;6.10;7.90;;;;;;5031593;28;25069;-79
2022/04/02 10:15:32;;;;;;;4.97;2.28;;;5.80;9.80;;;;;;5042802;28;25053;-80
2022/04/02 10:18:02;;;;;;;3.53;2.55;;;5.60;11.60;;;;;;5038464;28;25100;-75
2022/04/02 10:20:29;;;;;;;5.75;2.05;;;5.50;12.40;;;;;;5038617;28;25126;-76
2022/04/02 10:23:06;;;;;;;9.13;2.30;;;5.80;11.80;;;;;;5031955;28;25055;-76
2022/04/02 10:25:43;;;;;;;6.45;1.77;;;6.30;9.50;;;;;;5044124;28;25087;-78
2022/04/02 10:28:14;;;;;;;4.90;2.10;;;6.70;7.90;;;;;;5047956;28;25080;-77
2022/04/02 10:30:44;;;;;;;2.17;1.60;;;6.80;8.40;;;;;;5065503;28;25101;-75
2022/04/02 10:33:26;;;;;;;3.80;2.20;;;6.70;4.30;;;;;;5043559;28;25061;-74
2022/04/02 10:35:53;;;;;;;5.50;2.35;;;6.70;5.10;;;;;;5039679;28;25160;-79
2022/04/02 10:38:33;;;;;;;2.78;2.10;;;6.60;3.40;;;;;;5037185;28;25069;-77
2022/04/02 10:41:03;;;;;;;3.95;2.00;;;7.00;4.80;;;;;;5041186;28;25092;-76
2022/04/02 10:43:30;;;;;;;7.53;1.65;;;6.80;2.10;;;;;;5041438;28;25088;-75
2022/04/02 10:45:58;;;;;;;2.72;1.90;;;7.20;2.50;;;;;;5027484;28;25068;-77
2022/04/02 10:48:36;;;;;;;3.80;1.65;;;7.30;1.00;;;;;;5045231;28;25047;-79
2022/04/02 10:51:02;;;;;;;3.55;2.00;;;6.80;1.00;;;;;;5038504;28;25167;-76
2022/04/02 10:53:31;;;;;;;3.70;1.92;;;6.50;1.20;;;;;;5036674;28;25103;-76
2022/04/02 10:56:01;;;;;;;4.25;2.05;;;6.10;3.40;;;;;;5042705;28;25095;-75
2022/04/02 10:58:36;;;;;;;3.40;2.03;;;5.80;5.20;;;;;;5040903;28;25065;-74
2022/04/02 11:01:04;;;;;;;3.85;2.30;;;5.90;6.40;;;;;;5014045;28;25090;-74
2022/04/02 11:03:42;;;;;;;6.53;2.00;;;6.00;6.30;;;;;;5035624;28;25133;-75
2022/04/02 11:06:09;;;;;;;5.50;1.70;;;6.10;4.50;;;;;;5043719;28;25162;-77
2022/04/02 11:08:34;;;;;;;6.35;2.13;;;6.40;3.70;;;;;;5036829;28;25072;-73
2022/04/02 11:11:24;;;;;;;4.07;2.40;;;6.90;4.70;;;;;;5049342;28;25101;-76
2022/04/02 11:14:00;;;;;;;3.25;2.13;;;7.30;2.40;;;;;;5059469;28;25042;-75
2022/04/02 11:16:39;;;;;;;8.55;1.80;;;7.40;3.60;;;;;;5051909;28;25068;-76
2022/04/02 11:22:02;;;;;;;4.95;1.52;;;6.90;5.50;;;;;;5037665;28;25047;-75
2022/04/02 11:24:31;;;;;;;5.45;2.05;;;6.40;5.80;;;;;;5039237;28;25066;-75
2022/04/02 11:26:59;;;;;;;4.90;2.08;;;5.90;6.80;;;;;;5046890;28;25101;-74
2022/04/02 11:29:26;;;;;;;2.78;1.85;;;5.80;6.70;;;;;;5041627;28;25064;-75
2022/04/02 11:31:58;;;;;;;8.30;2.20;;;5.80;8.00;;;;;;5023726;28;25067;-76
2022/04/02 11:34:28;;;;;;;3.28;1.95;;;6.60;7.70;;;;;;5048361;28;25052;-76
2022/04/02 11:37:00;;;;;;;6.28;2.13;;;6.70;6.10;;;;;;5033795;28;25071;-76
2022/04/02 11:39:40;;;;;;;5.68;2.08;;;6.60;7.50;;;;;;5052139;28;25055;-76
2022/04/02 11:42:07;;;;;;;3.78;1.85;;;6.30;9.10;;;;;;5055860;28;25065;-77
2022/04/02 11:44:36;;;;;;;5.97;1.83;;;6.00;10.20;;;;;;5053617;28;25071;-77
2022/04/02 11:47:07;;;;;;;5.38;1.80;;;5.90;11.60;;;;;;5036701;28;25080;-75
2022/04/02 11:49:37;;;;;;;10.52;2.72;;;5.90;12.10;;;;;;5053797;28;25081;-76
2022/04/02 11:52:04;;;;;;;2.80;1.77;;;5.80;11.60;;;;;;5052612;28;25060;-75
2022/04/02 11:54:30;;;;;;;3.80;1.70;;;5.80;10.10;;;;;;5051018;28;25052;-76
2022/04/02 11:57:12;;;;;;;6.10;1.98;;;6.30;11.40;;;;;;5051304;28;25086;-78
2022/04/02 11:59:52;;;;;;;5.32;2.00;;;6.40;8.60;;;;;;5055241;28;25071;-77
2022/04/02 12:02:41;;;;;;;4.47;2.08;;;6.30;11.00;;;;;;5036732;28;25055;-75
2022/04/02 12:05:09;;;;;;;8.13;2.50;;;6.00;13.50;;;;;;5058772;28;25052;-74
2022/04/02 12:07:41;;;;;;;4.43;2.60;;;5.80;14.80;;;;;;5027441;28;25102;-79
2022/04/02 12:10:13;;;;;;;4.88;2.10;;;5.70;14.90;;;;;;5043243;28;25061;-77
2022/04/02 12:12:50;;;;;;;5.88;2.30;;;5.70;14.90;;;;;;5044202;28;25118;-77
2022/04/02 12:15:16;;;;;;;5.75;2.00;;;5.80;15.80;;;;;;5064046;28;25103;-76
2022/04/02 12:18:08;;;;;;;4.78;1.85;;;5.80;15.80;;;;;;5021941;28;25070;-77
2022/04/02 12:20:39;;;;;;;12.27;2.58;;;5.80;15.30;;;;;;5059127;28;25053;-78
2022/04/02 12:23:13;;;;;;;5.32;2.25;;;5.90;15.10;;;;;;5060535;28;25067;-79
2022/04/02 12:25:56;;;;;;;7.82;2.40;;;6.00;16.10;;;;;;5061489;28;25073;-76
2022/04/02 12:28:22;;;;;;;2.95;1.90;;;6.30;15.60;;;;;;5060064;28;25057;-76
2022/04/02 12:30:51;;;;;;;4.20;2.03;;;6.50;14.90;;;;;;5060608;28;25053;-76
2022/04/02 12:33:22;;;;;;;3.38;1.83;;;7.00;13.90;;;;;;5076985;28;25066;-81
2022/04/02 12:35:59;;;;;;;3.92;2.13;;;7.60;13.20;;;;;;5051209;28;25100;-80
2022/04/02 12:38:31;;;;;;;2.90;1.77;;;8.00;9.00;;;;;;5038113;28;25072;-82
2022/04/02 12:40:58;;;;;;;6.32;1.90;;;7.90;8.60;;;;;;5038082;28;25078;-80
2022/04/02 12:43:29;;;;;;;2.65;1.98;;;7.50;9.20;;;;;;5057845;28;25072;-80
2022/04/02 12:45:59;;;;;;;4.03;1.70;;;7.50;7.90;;;;;;5023677;28;25043;-78
2022/04/02 12:48:25;;;;;;;1.95;1.70;;;8.00;6.60;;;;;;5056094;28;25148;-78
2022/04/02 12:50:59;;;;;;;3.55;1.75;;;7.70;7.90;;;;;;5053741;28;25028;-77
2022/04/02 12:53:38;;;;;;;2.78;1.60;;;7.40;2.90;;;;;;5054385;28;25101;-80
2022/04/02 12:56:09;;;;;;;4.03;1.60;;;6.60;4.30;;;;;;5054446;28;25070;-78
2022/04/02 12:58:39;;;;;;;5.65;1.45;;;6.50;4.40;;;;;;5054081;28;25134;-76
2022/04/02 13:01:11;;;;;;;5.07;1.80;;;6.30;4.90;;;;;;5048882;28;25079;-75
2022/04/02 13:03:44;;;;;;;4.60;1.70;;;6.10;4.00;;;;;;5047764;28;25064;-77
2022/04/02 13:06:17;;;;;;;3.33;1.95;;;6.10;4.40;;;;;;5057171;28;25053;-77
2022/04/02 13:08:57;;;;;;;4.97;1.70;;;6.10;4.90;;;;;;5056656;28;25067;-76
2022/04/02 13:11:48;;;;;;;5.50;1.50;;;6.30;5.30;;;;;;5056500;28;25153;-75
2022/04/02 13:14:33;;;;;;;2.42;1.55;;;6.10;5.20;;;;;;5055015;28;25060;-78
2022/04/02 13:17:18;;;;;;;7.25;1.90;;;6.00;6.50;;;;;;5053017;28;25134;-75
2022/04/02 13:22:37;;;;;;;3.38;1.65;;;5.90;7.60;;;;;;5054368;28;25134;-75
2022/04/02 13:25:10;;;;;;;3.88;1.45;;;6.00;7.50;;;;;;5036102;28;25062;-78